Time;durP1;ratioP1;P1;durP2;ratioP2;P2;SDS_P1;SDS_P2;PMS_P1;PMS_P2;Temp;Humidity;BMP_temperature;BMP_pressure;BME280_temperature;BME280_humidity;BME280_pressure;Samples;Min_cycle;Max_cycle;Signal;HPM_P1;HPM_P2
2022/02/08 00:01:27;;;;;;;9.40;2.47;;;4.60;99.90;;;;;;5114113;28;20059;-71
2022/02/08 00:03:53;;;;;;;4.20;1.98;;;4.70;99.90;;;;;;5113662;28;20041;-71
2022/02/08 00:06:52;;;;;;;9.80;2.60;;;4.70;99.90;;;;;;5114378;28;20102;-71
2022/02/08 00:09:12;;;;;;;9.60;2.03;;;4.70;99.90;;;;;;5112666;28;20392;-71
2022/02/08 00:11:38;;;;;;;6.10;1.90;;;4.70;99.90;;;;;;5112271;28;20020;-71
2022/02/08 00:14:04;;;;;;;8.95;2.25;;;4.70;99.90;;;;;;5113764;28;20461;-71
2022/02/08 00:16:33;;;;;;;9.18;2.33;;;4.60;99.90;;;;;;5113523;28;20106;-70
2022/02/08 00:18:59;;;;;;;12.52;3.00;;;4.60;99.90;;;;;;5113549;28;20044;-70
2022/02/08 00:21:25;;;;;;;10.53;2.60;;;4.60;99.90;;;;;;5113729;28;20094;-70
2022/02/08 00:23:51;;;;;;;8.23;2.10;;;4.60;99.90;;;;;;5113042;28;20035;-70
2022/02/08 00:26:17;;;;;;;9.48;2.42;;;4.70;99.90;;;;;;5112063;28;20361;-71
2022/02/08 00:28:43;;;;;;;10.23;3.87;;;4.60;99.90;;;;;;5117096;28;20015;-71
2022/02/08 00:31:08;;;;;;;9.68;2.75;;;4.60;99.90;;;;;;5116837;28;20269;-71
2022/02/08 00:33:34;;;;;;;6.05;2.20;;;4.70;99.90;;;;;;5115416;28;20032;-70
2022/02/08 00:36:00;;;;;;;10.80;2.57;;;4.60;99.90;;;;;;5115813;28;20417;-70
2022/02/08 00:38:26;;;;;;;11.05;3.03;;;4.70;99.90;;;;;;5115670;28;20144;-71
2022/02/08 00:40:57;;;;;;;11.18;3.03;;;4.60;99.90;;;;;;5116567;27;20024;-73
2022/02/08 00:43:27;;;;;;;12.35;2.78;;;4.70;99.90;;;;;;5117684;28;20434;-74
2022/02/08 00:46:01;;;;;;;4.68;2.00;;;4.70;99.90;;;;;;5116614;28;20363;-72
2022/02/08 00:48:31;;;;;;;6.15;2.13;;;4.70;99.90;;;;;;5121599;28;20076;-73
2022/02/08 00:50:57;;;;;;;10.75;2.65;;;4.70;99.90;;;;;;5115611;28;20024;-73
2022/02/08 00:53:23;;;;;;;9.32;2.28;;;4.70;99.90;;;;;;5115319;28;20032;-73
2022/02/08 00:55:49;;;;;;;12.15;2.17;;;4.70;99.90;;;;;;5114840;28;20400;-73
2022/02/08 00:58:15;;;;;;;4.60;2.37;;;4.70;99.90;;;;;;5116235;28;20027;-73
2022/02/08 01:00:40;;;;;;;9.10;2.30;;;4.60;99.90;;;;;;5114915;28;20767;-74
2022/02/08 01:03:08;;;;;;;9.80;2.47;;;4.60;99.90;;;;;;5115675;28;20488;-72
2022/02/08 01:05:39;;;;;;;7.03;2.05;;;4.60;99.90;;;;;;5114731;28;20024;-72
2022/02/08 01:08:05;;;;;;;6.07;2.10;;;4.60;99.90;;;;;;5116257;28;20016;-72
2022/02/08 01:10:36;;;;;;;5.67;2.57;;;4.50;99.90;;;;;;5116191;28;20488;-72
2022/02/08 01:13:02;;;;;;;7.03;2.13;;;4.60;99.90;;;;;;5115797;28;20058;-73
2022/02/08 01:15:28;;;;;;;6.70;2.53;;;4.60;99.90;;;;;;5114651;28;20059;-72
2022/02/08 01:17:57;;;;;;;8.27;1.90;;;4.60;99.90;;;;;;5114419;28;20028;-72
2022/02/08 01:20:30;;;;;;;8.15;2.78;;;4.50;99.90;;;;;;5114447;28;20352;-72
2022/02/08 01:22:57;;;;;;;8.38;2.08;;;4.50;99.90;;;;;;5115476;28;20020;-74
2022/02/08 01:25:29;;;;;;;9.10;2.33;;;4.40;99.90;;;;;;5114599;28;20026;-73
2022/02/08 01:28:00;;;;;;;6.63;2.17;;;4.40;99.90;;;;;;5115685;28;20016;-71
2022/02/08 01:30:41;;;;;;;5.28;2.03;;;4.30;99.90;;;;;;5116271;28;20031;-72
2022/02/08 01:38:05;;;;;;;11.07;3.33;;;4.20;99.90;;;;;;5116636;27;20015;-73
2022/02/08 01:48:14;;;;;;;9.02;2.25;;;4.10;99.90;;;;;;5123654;28;20746;-74
2022/02/08 01:50:41;;;;;;;10.00;2.50;;;4.00;99.90;;;;;;5115088;28;20024;-72
2022/02/08 01:53:07;;;;;;;6.88;2.38;;;4.00;99.90;;;;;;5113768;28;20361;-73
2022/02/08 01:55:34;;;;;;;10.57;2.22;;;4.00;99.90;;;;;;5115012;28;20012;-72
2022/02/08 01:58:02;;;;;;;6.70;2.10;;;3.90;99.90;;;;;;5114041;28;20043;-73
2022/02/08 02:00:28;;;;;;;10.77;2.67;;;3.90;99.90;;;;;;5114984;28;20039;-72
2022/02/08 02:02:55;;;;;;;7.70;2.33;;;3.90;99.90;;;;;;5113184;28;20032;-73
2022/02/08 02:05:21;;;;;;;6.22;2.13;;;3.80;99.90;;;;;;5113419;28;20102;-73
2022/02/08 02:07:48;;;;;;;9.60;2.50;;;3.80;99.90;;;;;;5113386;28;20066;-72
2022/02/08 02:10:19;;;;;;;10.77;2.60;;;3.80;99.90;;;;;;5113414;28;20489;-72
2022/02/08 02:12:58;;;;;;;12.13;2.88;;;3.80;99.90;;;;;;5113339;28;20495;-72
2022/02/08 02:15:25;;;;;;;7.72;2.40;;;3.80;99.90;;;;;;5113126;28;20051;-72
2022/02/08 02:17:52;;;;;;;10.50;1.70;;;3.80;99.90;;;;;;5114544;28;20030;-72
2022/02/08 02:20:18;;;;;;;9.65;2.30;;;3.80;99.90;;;;;;5113179;28;20509;-72
2022/02/08 02:22:44;;;;;;;7.88;2.92;;;3.70;99.90;;;;;;5113059;28;20551;-72
2022/02/08 02:25:23;;;;;;;7.95;2.20;;;3.70;99.90;;;;;;5113266;28;20031;-73
2022/02/08 02:27:52;;;;;;;8.07;2.78;;;3.80;99.90;;;;;;5114505;28;20035;-73
2022/02/08 02:30:18;;;;;;;13.43;2.78;;;3.80;99.90;;;;;;5114513;28;20015;-73
2022/02/08 02:32:43;;;;;;;8.87;2.10;;;3.80;99.90;;;;;;5113395;28;20035;-72
2022/02/08 02:35:09;;;;;;;7.73;2.30;;;3.90;99.90;;;;;;5113615;28;20032;-73
2022/02/08 02:37:35;;;;;;;7.67;1.77;;;3.90;99.90;;;;;;5114495;28;20027;-73
2022/02/08 02:40:00;;;;;;;9.23;2.40;;;4.00;99.90;;;;;;5113012;28;20265;-73
2022/02/08 02:42:27;;;;;;;6.97;2.23;;;4.00;99.90;;;;;;5112947;28;20027;-73
2022/02/08 02:44:53;;;;;;;7.88;2.00;;;4.10;99.90;;;;;;5116307;28;20072;-73
2022/02/08 02:47:19;;;;;;;7.65;2.10;;;4.10;99.90;;;;;;5114694;28;20492;-73
2022/02/08 02:49:45;;;;;;;5.10;1.67;;;4.20;99.90;;;;;;5113868;28;20065;-73
2022/02/08 02:52:11;;;;;;;8.07;2.10;;;4.20;99.90;;;;;;5112817;28;20023;-72
2022/02/08 02:54:36;;;;;;;8.13;1.83;;;4.30;99.90;;;;;;5115089;28;20032;-74
2022/02/08 02:57:02;;;;;;;9.03;1.83;;;4.30;99.90;;;;;;5114187;28;20024;-72
2022/02/08 02:59:31;;;;;;;8.63;2.10;;;4.40;99.90;;;;;;5112776;28;20441;-73
2022/02/08 03:02:23;;;;;;;6.50;1.85;;;4.40;99.90;;;;;;5112835;28;20039;-72
2022/02/08 03:20:48;;;;;;;7.47;1.45;;;4.50;99.90;;;;;;5113817;28;20381;-72
2022/02/08 03:23:14;;;;;;;5.38;1.85;;;4.50;99.90;;;;;;5113553;28;20020;-73
2022/02/08 03:25:41;;;;;;;7.72;1.75;;;4.60;99.90;;;;;;5112117;28;20436;-74
2022/02/08 03:28:07;;;;;;;9.15;3.58;;;4.50;99.90;;;;;;5113364;28;20051;-72
2022/02/08 03:30:33;;;;;;;10.10;2.10;;;4.60;99.90;;;;;;5112112;28;20072;-72
2022/02/08 03:32:59;;;;;;;9.57;2.03;;;4.60;99.90;;;;;;5112007;28;20024;-72
2022/02/08 03:35:24;;;;;;;4.53;1.70;;;4.60;99.90;;;;;;5113345;28;20076;-73
2022/02/08 03:38:03;;;;;;;8.70;1.53;;;4.70;99.90;;;;;;5113631;28;20019;-73
2022/02/08 03:43:12;;;;;;;4.82;1.55;;;4.70;99.90;;;;;;5113192;28;20031;-73
2022/02/08 03:45:39;;;;;;;8.25;1.85;;;4.70;99.90;;;;;;5112183;28;20490;-73
2022/02/08 03:48:05;;;;;;;;;;;4.70;99.90;;;;;;5113883;28;20023;-73
2022/02/08 03:50:30;;;;;;;9.15;1.50;;;4.80;99.90;;;;;;5113456;28;19904;-73
2022/02/08 03:52:56;;;;;;;8.60;2.50;;;4.80;99.90;;;;;;5111733;28;20027;-72
2022/02/08 03:55:22;;;;;;;8.07;2.10;;;4.90;99.90;;;;;;5114091;28;20046;-73
2022/02/08 03:57:47;;;;;;;9.88;1.80;;;4.90;99.90;;;;;;5112092;28;20100;-72
2022/02/08 04:00:14;;;;;;;9.00;1.50;;;4.90;99.90;;;;;;5112013;28;20372;-72
2022/02/08 04:02:53;;;;;;;8.00;1.55;;;4.90;99.90;;;;;;5114911;28;20452;-72
2022/02/08 04:07:58;;;;;;;12.77;1.60;;;4.90;99.90;;;;;;5117457;28;20107;-73
2022/02/08 04:10:26;;;;;;;10.15;1.58;;;4.90;99.90;;;;;;5115879;28;20480;-73
2022/02/08 04:13:14;;;;;;;7.10;1.48;;;5.00;99.90;;;;;;5116350;28;20055;-74
2022/02/08 04:16:06;;;;;;;;;;;4.90;99.90;;;;;;5116643;28;20391;-72
2022/02/08 04:34:46;;;;;;;5.70;1.88;;;4.80;99.90;;;;;;5117293;28;20088;-74
2022/02/08 04:40:34;;;;;;;4.90;1.58;;;4.90;99.90;;;;;;5116927;28;20046;-73
2022/02/08 04:43:07;;;;;;;10.32;1.50;;;4.90;99.90;;;;;;5117288;28;20019;-73
2022/02/08 04:45:42;;;;;;;4.97;1.30;;;5.00;99.90;;;;;;5116166;28;20122;-72
2022/02/08 04:48:24;;;;;;;5.28;1.05;;;5.00;99.90;;;;;;5115142;28;20112;-72
2022/02/08 04:51:04;;;;;;;8.40;1.85;;;5.00;99.90;;;;;;5122608;28;20503;-73
2022/02/08 04:53:37;;;;;;;6.65;1.20;;;5.00;99.90;;;;;;5115846;28;20081;-73
2022/02/08 05:42:41;;;;;;;5.72;1.75;;;5.40;99.90;;;;;;5116006;28;20074;-68
2022/02/08 05:47:40;;;;;;;;;;;5.50;99.90;;;;;;5115879;28;20062;-70
2022/02/08 05:50:10;;;;;;;5.85;1.38;;;5.50;99.90;;;;;;5114034;28;19903;-71
2022/02/08 05:55:11;;;;;;;9.30;2.17;;;5.50;99.90;;;;;;5115674;28;20479;-70
2022/02/08 05:57:37;;;;;;;4.60;1.57;;;5.50;99.90;;;;;;5117675;28;20027;-71
2022/02/08 06:00:05;;;;;;;5.50;1.52;;;5.40;99.90;;;;;;5116819;28;20035;-71
2022/02/08 06:02:31;;;;;;;6.32;1.63;;;5.40;99.90;;;;;;5113809;28;20051;-67
2022/02/08 06:04:57;;;;;;;7.37;1.83;;;5.50;99.90;;;;;;5115369;28;20384;-66
2022/02/08 06:07:23;;;;;;;8.50;1.70;;;5.40;99.90;;;;;;5114086;28;20015;-67
2022/02/08 06:09:53;;;;;;;16.67;2.28;;;5.50;99.90;;;;;;5115205;28;20024;-68
2022/02/08 06:12:22;;;;;;;11.82;1.90;;;5.40;99.90;;;;;;5114956;28;20108;-67
2022/02/08 06:14:56;;;;;;;9.20;1.80;;;5.50;99.90;;;;;;5114772;28;20027;-67
2022/02/08 06:17:21;;;;;;;7.63;1.63;;;5.50;99.90;;;;;;5114913;28;20028;-67
2022/02/08 06:19:47;;;;;;;9.70;1.83;;;5.50;99.90;;;;;;5114630;28;20050;-66
2022/02/08 06:22:12;;;;;;;6.90;1.97;;;5.40;99.90;;;;;;5115300;28;20082;-67
2022/02/08 06:24:38;;;;;;;9.07;1.90;;;5.40;99.90;;;;;;5114089;28;20035;-66
2022/02/08 06:27:04;;;;;;;9.77;2.10;;;5.40;99.90;;;;;;5115276;28;20039;-67
2022/02/08 06:29:29;;;;;;;7.90;1.52;;;5.40;99.90;;;;;;5113502;28;20016;-67
2022/02/08 06:31:55;;;;;;;7.00;1.73;;;5.40;99.90;;;;;;5114291;28;20035;-66
2022/02/08 06:34:24;;;;;;;5.00;2.03;;;5.40;99.90;;;;;;5114884;28;20024;-67
2022/02/08 06:36:57;;;;;;;8.52;2.40;;;5.40;99.90;;;;;;5112967;28;20028;-66
2022/02/08 06:39:22;;;;;;;6.00;1.88;;;5.50;99.90;;;;;;5113706;28;20024;-66
2022/02/08 06:41:48;;;;;;;10.43;2.40;;;5.50;99.90;;;;;;5114125;28;20032;-66
2022/02/08 06:44:14;;;;;;;6.53;1.83;;;5.50;99.90;;;;;;5113714;28;20028;-65
2022/02/08 06:46:39;;;;;;;6.97;1.67;;;5.50;99.90;;;;;;5114090;28;20254;-65
2022/02/08 06:49:05;;;;;;;6.93;1.43;;;5.50;99.90;;;;;;5113730;28;20027;-65
2022/02/08 06:51:31;;;;;;;7.13;2.07;;;5.60;99.90;;;;;;5112379;28;20046;-65
2022/02/08 06:53:56;;;;;;;6.53;1.37;;;5.60;99.90;;;;;;5113694;28;20103;-65
2022/02/08 06:56:22;;;;;;;7.57;1.80;;;5.70;99.90;;;;;;5115575;28;20108;-65
2022/02/08 06:58:58;;;;;;;6.77;1.70;;;5.70;99.90;;;;;;5115170;28;20027;-65
2022/02/08 07:01:28;;;;;;;6.80;1.40;;;5.70;99.90;;;;;;5113761;28;20547;-67
2022/02/08 07:03:54;;;;;;;9.15;1.55;;;5.80;99.90;;;;;;5113553;28;20039;-66
2022/02/08 07:06:20;;;;;;;8.27;2.13;;;5.80;99.90;;;;;;5113723;28;20042;-65
2022/02/08 07:08:46;;;;;;;9.95;3.38;;;5.80;99.90;;;;;;5112488;28;20266;-65
2022/02/08 07:11:16;;;;;;;9.43;2.67;;;5.80;99.90;;;;;;5113762;28;20024;-65
2022/02/08 07:13:43;;;;;;;6.40;2.08;;;5.80;99.90;;;;;;5113317;28;20110;-66
2022/02/08 07:16:12;;;;;;;8.30;1.65;;;5.80;99.90;;;;;;5113476;28;20020;-65
2022/02/08 07:18:39;;;;;;;4.40;1.60;;;5.80;99.90;;;;;;5113516;28;20030;-65
2022/02/08 07:21:06;;;;;;;9.55;2.17;;;5.80;99.90;;;;;;5113603;28;20030;-66
2022/02/08 07:23:31;;;;;;;9.27;2.00;;;5.90;99.90;;;;;;5113313;28;20023;-65
2022/02/08 07:25:57;;;;;;;4.47;1.87;;;5.90;99.90;;;;;;5113595;28;20050;-66
2022/02/08 07:28:22;;;;;;;10.97;2.23;;;6.00;99.90;;;;;;5113351;28;20541;-67
2022/02/08 07:30:48;;;;;;;7.13;1.77;;;6.10;99.90;;;;;;5113346;28;20499;-66
2022/02/08 07:33:14;;;;;;;11.00;2.43;;;6.10;99.90;;;;;;5113652;28;20480;-65
2022/02/08 07:38:20;;;;;;;7.05;1.83;;;6.20;99.90;;;;;;5117797;28;20148;-66
2022/02/08 07:43:18;;;;;;;7.97;2.40;;;6.20;99.90;;;;;;5118010;28;19915;-65
2022/02/08 07:45:44;;;;;;;10.73;2.88;;;6.20;99.90;;;;;;5118492;28;20019;-65
2022/02/08 07:48:10;;;;;;;5.27;1.97;;;6.20;99.90;;;;;;5118492;28;20020;-66
2022/02/08 07:50:39;;;;;;;14.10;2.67;;;6.30;99.90;;;;;;5117603;28;20099;-66
2022/02/08 07:53:08;;;;;;;8.77;1.90;;;6.20;99.90;;;;;;5117749;28;20352;-65
2022/02/08 07:55:34;;;;;;;7.03;1.95;;;6.20;99.90;;;;;;5117592;28;20035;-66
2022/02/08 07:58:00;;;;;;;6.40;2.00;;;6.20;99.90;;;;;;5117676;28;20024;-66
2022/02/08 08:00:25;;;;;;;6.70;1.63;;;6.20;99.90;;;;;;5117854;28;20046;-65
2022/02/08 08:02:53;;;;;;;5.60;2.00;;;6.20;99.90;;;;;;5117920;28;20042;-66
2022/02/08 08:05:19;;;;;;;10.48;2.40;;;6.20;99.90;;;;;;5117791;28;20647;-65
2022/02/08 08:07:45;;;;;;;8.35;2.45;;;6.20;99.90;;;;;;5116260;28;20539;-66
2022/02/08 08:10:18;;;;;;;7.75;1.77;;;6.20;99.90;;;;;;5118181;28;20102;-66
2022/02/08 08:12:53;;;;;;;7.03;1.60;;;6.20;99.90;;;;;;5117735;28;20468;-65
2022/02/08 08:15:37;;;;;;;6.50;1.42;;;6.30;99.90;;;;;;5118974;28;20023;-66
2022/02/08 08:18:18;;;;;;;5.95;1.85;;;6.30;99.90;;;;;;5122063;28;20020;-66
2022/02/08 08:20:43;;;;;;;5.35;1.60;;;6.30;99.90;;;;;;5117614;28;20399;-65
2022/02/08 08:23:09;;;;;;;9.03;1.57;;;6.40;99.90;;;;;;5118515;28;20110;-66
2022/02/08 08:25:35;;;;;;;11.15;2.63;;;6.30;99.90;;;;;;5118774;28;20484;-66
2022/02/08 08:28:01;;;;;;;7.68;1.83;;;6.40;99.90;;;;;;5115624;28;20039;-65
2022/02/08 08:30:27;;;;;;;8.83;2.43;;;6.40;99.90;;;;;;5116827;28;20028;-65
2022/02/08 08:32:52;;;;;;;7.50;1.80;;;6.40;99.90;;;;;;5117740;28;20035;-65
2022/02/08 08:35:23;;;;;;;9.83;1.50;;;6.50;99.90;;;;;;5119042;28;20384;-66
2022/02/08 08:37:52;;;;;;;6.10;1.48;;;6.50;99.90;;;;;;5117447;27;20024;-65
2022/02/08 08:40:39;;;;;;;6.30;2.22;;;6.60;99.90;;;;;;5116785;28;20069;-65
2022/02/08 08:51:15;;;;;;;7.30;1.55;;;6.90;99.90;;;;;;5116676;28;20035;-65
2022/02/08 08:53:42;;;;;;;8.98;2.13;;;7.00;99.90;;;;;;5116376;28;20084;-65
2022/02/08 08:56:08;;;;;;;7.05;1.83;;;7.00;99.90;;;;;;5116280;28;20075;-65
2022/02/08 08:58:36;;;;;;;8.17;1.37;;;7.10;99.90;;;;;;5116106;28;20101;-66
2022/02/08 09:01:03;;;;;;;4.72;1.85;;;7.30;99.90;;;;;;5115960;28;20030;-65
2022/02/08 09:03:29;;;;;;;8.65;1.88;;;7.30;99.90;;;;;;5115628;28;20039;-65
2022/02/08 09:05:55;;;;;;;6.78;1.70;;;7.40;99.90;;;;;;5116114;28;20084;-66
2022/02/08 09:08:23;;;;;;;4.30;1.35;;;7.40;99.90;;;;;;5116272;28;20015;-65
2022/02/08 09:10:57;;;;;;;8.80;1.60;;;7.50;99.90;;;;;;5115792;28;20023;-64
2022/02/08 09:13:29;;;;;;;6.57;1.63;;;7.60;99.90;;;;;;5116059;28;20043;-65
2022/02/08 09:16:05;;;;;;;9.43;1.65;;;7.70;99.90;;;;;;5115911;28;20061;-64
2022/02/08 09:24:09;;;;;;;7.93;1.60;;;8.10;99.20;;;;;;5115773;28;20455;-65
2022/02/08 09:29:01;;;;;;;8.15;1.70;;;8.10;99.70;;;;;;5117604;28;20019;-65
2022/02/08 09:31:27;;;;;;;5.28;1.30;;;8.10;99.40;;;;;;5115976;28;20030;-65
2022/02/08 09:33:52;;;;;;;4.60;1.43;;;8.10;99.30;;;;;;5114058;28;20110;-66
2022/02/08 09:36:24;;;;;;;10.30;1.47;;;8.10;99.30;;;;;;5114185;28;20261;-66
2022/02/08 09:38:51;;;;;;;8.48;2.45;;;8.10;99.50;;;;;;5115545;28;20023;-65
2022/02/08 09:41:19;;;;;;;6.88;1.60;;;8.20;99.50;;;;;;5114978;28;20027;-65
2022/02/08 09:43:46;;;;;;;9.07;1.73;;;8.20;99.40;;;;;;5115225;28;20026;-66
2022/02/08 09:46:12;;;;;;;6.30;1.42;;;8.10;98.70;;;;;;5116142;28;20016;-65
2022/02/08 09:48:44;;;;;;;12.77;1.70;;;8.10;99.00;;;;;;5116359;28;20027;-65
2022/02/08 09:51:13;;;;;;;6.40;1.65;;;8.10;99.00;;;;;;5116568;28;20019;-65
2022/02/08 09:53:42;;;;;;;7.57;1.38;;;8.10;99.10;;;;;;5116312;28;20023;-65
2022/02/08 09:56:10;;;;;;;7.22;2.03;;;8.10;98.60;;;;;;5119969;28;20119;-65
2022/02/08 09:58:36;;;;;;;8.32;1.58;;;8.20;99.00;;;;;;5115654;28;20028;-65
2022/02/08 10:01:22;;;;;;;7.07;1.65;;;8.20;98.90;;;;;;5114935;28;20027;-66
2022/02/08 10:03:56;;;;;;;7.25;1.50;;;8.40;98.70;;;;;;5114643;28;20426;-65
2022/02/08 10:06:24;;;;;;;7.07;1.27;;;8.50;98.60;;;;;;5114630;28;20043;-65
2022/02/08 10:09:08;;;;;;;5.40;1.55;;;8.60;98.30;;;;;;5114406;28;20020;-65
2022/02/08 10:11:57;;;;;;;6.35;2.38;;;8.70;98.10;;;;;;5114908;28;20012;-66
2022/02/08 10:14:27;;;;;;;6.03;1.58;;;8.70;98.10;;;;;;5114646;28;20369;-65
2022/02/08 10:22:37;;;;;;;7.22;1.90;;;8.80;98.60;;;;;;5116423;28;20096;-66
2022/02/08 10:25:07;;;;;;;10.23;1.73;;;8.80;98.10;;;;;;5114667;28;20027;-65
2022/02/08 10:27:40;;;;;;;5.88;1.40;;;8.80;98.20;;;;;;5114316;28;20480;-64
2022/02/08 10:38:23;;;;;;;6.03;1.63;;;9.50;97.40;;;;;;5114435;28;20031;-65
2022/02/08 10:40:50;;;;;;;12.37;2.00;;;9.40;97.30;;;;;;5112768;28;20028;-65
2022/02/08 10:43:17;;;;;;;7.70;1.58;;;9.30;97.40;;;;;;5113973;28;20035;-65
2022/02/08 10:45:44;;;;;;;8.35;1.75;;;9.20;97.70;;;;;;5114171;28;20444;-65
2022/02/08 10:48:14;;;;;;;8.52;2.10;;;9.20;98.10;;;;;;5114686;28;20024;-65
2022/02/08 10:50:45;;;;;;;6.38;2.40;;;9.30;98.40;;;;;;5115205;28;20513;-65
2022/02/08 10:53:12;;;;;;;6.65;1.90;;;9.20;98.40;;;;;;5114085;28;20408;-66
2022/02/08 10:55:53;;;;;;;9.18;1.85;;;9.30;98.70;;;;;;5112080;28;20062;-65
2022/02/08 11:03:26;;;;;;;7.33;1.40;;;9.10;99.20;;;;;;5113629;28;20053;-66
2022/02/08 11:06:13;;;;;;;7.82;1.73;;;9.10;99.40;;;;;;5113797;28;20436;-65
2022/02/08 11:15:13;;;;;;;11.95;2.08;;;9.10;99.90;;;;;;5109575;28;20126;-65
2022/02/08 11:20:49;;;;;;;8.45;2.05;;;9.20;99.90;;;;;;5091711;28;20160;-66
2022/02/08 11:23:30;;;;;;;11.68;2.42;;;9.20;99.90;;;;;;5091246;28;20020;-66
2022/02/08 11:25:56;;;;;;;8.40;2.47;;;9.20;99.90;;;;;;5096222;28;20027;-64
2022/02/08 11:28:46;;;;;;;9.25;2.33;;;9.20;99.90;;;;;;5113620;28;20016;-65
2022/02/08 11:50:10;;;;;;;13.03;2.67;;;9.50;99.90;;;;;;5113414;28;20027;-66
2022/02/08 12:00:58;;;;;;;10.13;2.67;;;9.40;99.90;;;;;;5113479;28;19903;-66
2022/02/08 12:08:16;;;;;;;10.25;2.95;;;9.30;99.90;;;;;;5113777;28;20020;-66
2022/02/08 12:10:58;;;;;;;14.93;2.30;;;9.40;99.90;;;;;;5113579;28;20019;-65
2022/02/08 12:13:49;;;;;;;8.05;2.03;;;9.30;99.90;;;;;;5112746;28;20031;-66
2022/02/08 12:57:47;;;;;;;7.90;2.00;;;9.50;99.90;;;;;;5117643;27;20048;-65
2022/02/08 13:00:29;;;;;;;13.32;2.05;;;9.50;99.90;;;;;;5116630;28;20058;-65
2022/02/08 13:03:16;;;;;;;10.25;2.92;;;9.50;99.90;;;;;;5117700;28;20031;-68
2022/02/08 13:18:02;;;;;;;17.30;3.05;;;9.20;99.90;;;;;;5115591;28;20100;-70
2022/02/08 14:19:02;;;;;;;9.18;2.40;;;9.90;99.90;;;;;;5114919;28;20433;-61
2022/02/08 14:24:49;;;;;;;8.50;2.20;;;9.90;99.90;;;;;;5080447;28;20028;-61
2022/02/08 14:30:04;;;;;;;9.55;2.22;;;9.80;99.90;;;;;;5115569;28;20043;-60
2022/02/08 14:32:43;;;;;;;9.40;2.25;;;9.80;99.90;;;;;;5096810;28;20047;-61
2022/02/08 15:10:38;;;;;;;17.25;2.80;;;9.50;99.90;;;;;;5115986;28;20076;-61
2022/02/08 15:13:05;;;;;;;10.05;2.00;;;9.50;99.90;;;;;;5115303;28;20024;-62
2022/02/08 15:16:22;;;;;;;10.27;2.17;;;9.50;99.90;;;;;;5096431;28;20030;-62
2022/02/08 15:18:16;;;;;;;11.73;4.20;;;9.50;99.90;;;;;;5105014;28;20048;-61
2022/02/08 15:20:42;;;;;;;9.87;2.33;;;9.50;99.90;;;;;;5118431;28;20162;-62
2022/02/08 15:23:10;;;;;;;10.23;2.50;;;9.50;99.90;;;;;;5115612;28;20444;-62
2022/02/08 15:25:36;;;;;;;12.30;2.45;;;9.50;99.90;;;;;;5097282;28;20452;-61
2022/02/08 15:28:04;;;;;;;8.65;1.98;;;9.50;99.90;;;;;;5118353;28;20019;-62
2022/02/08 15:30:33;;;;;;;8.18;2.00;;;9.50;99.90;;;;;;5121300;28;20468;-62
2022/02/08 15:32:59;;;;;;;11.52;2.80;;;9.50;99.90;;;;;;5102565;28;20020;-62
2022/02/08 15:35:25;;;;;;;8.80;2.35;;;9.50;99.90;;;;;;5117011;28;20443;-64
2022/02/08 15:37:51;;;;;;;7.05;2.00;;;9.50;99.90;;;;;;5113945;28;20149;-62
2022/02/08 15:40:20;;;;;;;6.68;2.10;;;9.50;99.90;;;;;;5114150;28;20050;-65
2022/02/08 15:42:49;;;;;;;11.18;2.20;;;9.40;99.90;;;;;;5114200;28;20042;-63
2022/02/08 15:47:42;;;;;;;6.10;1.88;;;9.40;99.90;;;;;;5113514;28;20026;-65
2022/02/08 15:50:14;;;;;;;5.95;2.05;;;9.40;99.90;;;;;;5113863;28;20024;-64
2022/02/08 16:12:46;;;;;;;11.32;2.47;;;9.40;99.90;;;;;;5055149;28;20017;-64
2022/02/08 16:56:54;;;;;;;10.70;2.60;;;9.10;99.90;;;;;;5116940;28;20055;-66
2022/02/08 16:59:27;;;;;;;15.27;3.10;;;9.10;99.90;;;;;;5098047;28;20730;-66
2022/02/08 17:01:56;;;;;;;9.95;3.03;;;9.00;99.90;;;;;;5116681;28;20391;-66
2022/02/08 17:04:22;;;;;;;15.50;3.10;;;9.10;99.90;;;;;;5098935;28;20396;-62
2022/02/08 17:06:47;;;;;;;13.30;3.47;;;9.00;99.90;;;;;;5116971;28;20023;-65
2022/02/08 17:09:18;;;;;;;14.80;3.70;;;9.00;99.90;;;;;;5116347;28;20027;-66
2022/02/08 17:11:59;;;;;;;12.43;3.17;;;9.10;99.90;;;;;;5098541;28;20031;-67
2022/02/08 17:47:01;;;;;;;6.95;2.53;;;9.00;99.90;;;;;;5115832;28;20179;-64
2022/02/08 17:49:20;;;;;;;13.48;3.38;;;9.00;99.90;;;;;;5114595;28;20036;-63
2022/02/08 17:51:49;;;;;;;12.47;2.77;;;9.00;99.90;;;;;;5115219;28;20026;-63
2022/02/08 17:54:15;;;;;;;10.15;2.90;;;9.00;99.90;;;;;;5115061;28;20106;-62
2022/02/08 17:56:43;;;;;;;11.73;2.97;;;9.00;99.90;;;;;;5115003;28;20066;-62
2022/02/08 17:59:09;;;;;;;15.10;4.13;;;9.00;99.90;;;;;;5096531;28;20036;-63
2022/02/08 18:01:34;;;;;;;7.33;2.67;;;9.00;99.90;;;;;;5114877;28;20364;-61
2022/02/08 18:04:00;;;;;;;14.80;4.20;;;9.00;99.90;;;;;;5115134;28;20280;-64
2022/02/08 18:06:25;;;;;;;11.83;3.53;;;9.00;99.90;;;;;;5096808;28;20020;-60
2022/02/08 18:08:51;;;;;;;16.10;3.47;;;9.00;99.90;;;;;;5096918;28;20389;-60
2022/02/08 18:11:17;;;;;;;9.43;3.38;;;9.00;99.90;;;;;;5115328;28;20043;-60
2022/02/08 18:13:44;;;;;;;9.53;4.40;;;9.00;99.90;;;;;;5114718;28;20020;-62
2022/02/08 18:16:10;;;;;;;11.35;3.35;;;9.00;99.90;;;;;;5115097;28;20349;-62
2022/02/08 18:18:42;;;;;;;10.10;3.17;;;9.00;99.90;;;;;;5114683;28;20019;-61
2022/02/08 18:21:19;;;;;;;12.70;3.60;;;9.00;99.90;;;;;;5113976;28;20107;-61
2022/02/08 18:24:49;;;;;;;15.77;3.60;;;9.00;99.90;;;;;;5096213;28;20019;-61
2022/02/08 18:56:44;;;;;;;5.47;2.00;;;8.90;99.90;;;;;;5114313;28;20077;-61
2022/02/08 19:07:14;;;;;;;3.97;1.60;;;8.90;99.90;;;;;;5114058;28;20020;-59
2022/02/08 19:12:31;;;;;;;3.55;1.40;;;8.80;99.90;;;;;;5116594;28;20054;-61
2022/02/08 19:20:16;;;;;;;5.37;2.73;;;8.80;99.90;;;;;;5113928;28;20015;-62
2022/02/08 19:22:41;;;;;;;5.30;2.25;;;8.80;99.90;;;;;;5114148;28;20030;-62
2022/02/08 19:25:08;;;;;;;5.67;2.13;;;8.80;99.90;;;;;;5113958;28;20024;-63
2022/02/08 19:27:35;;;;;;;3.53;1.80;;;8.80;99.90;;;;;;5113965;28;20020;-62
2022/02/08 19:30:02;;;;;;;5.93;1.60;;;8.80;99.90;;;;;;5115142;28;20054;-62
2022/02/08 19:32:27;;;;;;;2.88;1.70;;;8.80;99.90;;;;;;5117721;28;20105;-61
2022/02/08 19:34:53;;;;;;;5.40;1.63;;;8.80;99.90;;;;;;5118606;28;20069;-63
2022/02/08 19:37:19;;;;;;;2.27;1.50;;;8.80;99.90;;;;;;5118903;28;20051;-62
2022/02/08 19:39:46;;;;;;;6.00;2.50;;;8.80;99.90;;;;;;5139908;22;20495;-69
2022/02/08 19:42:12;;;;;;;3.83;2.22;;;8.80;99.90;;;;;;5116332;28;20027;-69
2022/02/08 19:44:38;;;;;;;4.95;2.80;;;8.80;99.90;;;;;;5117536;28;20032;-68
2022/02/08 19:47:07;;;;;;;4.32;2.05;;;8.80;99.90;;;;;;5118032;28;20028;-68
2022/02/08 19:49:33;;;;;;;2.40;1.40;;;8.80;99.90;;;;;;5116460;28;20020;-69
2022/02/08 19:51:58;;;;;;;8.02;1.65;;;8.80;99.90;;;;;;5117777;28;20363;-68
2022/02/08 19:54:28;;;;;;;1.60;1.17;;;8.70;99.90;;;;;;5116131;28;20088;-68
2022/02/08 19:57:09;;;;;;;4.13;1.52;;;8.80;99.90;;;;;;5117487;28;20498;-68
2022/02/08 19:59:38;;;;;;;3.22;1.73;;;8.70;99.90;;;;;;5115877;28;20019;-69
2022/02/08 20:02:08;;;;;;;4.38;1.70;;;8.70;99.90;;;;;;5116121;28;20491;-68
2022/02/08 20:04:34;;;;;;;2.92;1.65;;;8.70;99.90;;;;;;5117205;28;20028;-68
2022/02/08 20:07:01;;;;;;;3.35;1.88;;;8.80;99.90;;;;;;5117375;28;20489;-70
2022/02/08 20:09:28;;;;;;;2.92;1.45;;;8.80;99.90;;;;;;5117353;28;20030;-69
2022/02/08 20:11:54;;;;;;;5.38;1.80;;;8.70;99.90;;;;;;5117143;28;20031;-68
2022/02/08 20:14:21;;;;;;;3.83;1.52;;;8.80;99.90;;;;;;5115794;28;20379;-68
2022/02/08 20:16:47;;;;;;;3.55;1.63;;;8.70;99.90;;;;;;5117354;28;20024;-68
2022/02/08 20:19:15;;;;;;;4.00;1.73;;;8.70;99.90;;;;;;5116962;28;20043;-68
2022/02/08 20:21:41;;;;;;;3.45;2.17;;;8.70;99.90;;;;;;5117099;28;20027;-69
2022/02/08 20:24:12;;;;;;;5.53;1.67;;;8.70;99.90;;;;;;5116710;28;20019;-68
2022/02/08 20:29:03;;;;;;;4.40;2.43;;;8.70;99.90;;;;;;5116675;28;20034;-67
2022/02/08 20:31:29;;;;;;;2.93;1.70;;;8.70;99.90;;;;;;5116774;28;20092;-66
2022/02/08 20:33:55;;;;;;;4.28;1.83;;;8.60;99.90;;;;;;5115970;28;20050;-66
2022/02/08 20:36:21;;;;;;;2.97;1.57;;;8.60;99.90;;;;;;5116932;28;20027;-66
2022/02/08 20:38:48;;;;;;;2.83;1.77;;;8.60;99.90;;;;;;5116488;28;20507;-66
2022/02/08 20:41:21;;;;;;;2.17;1.35;;;8.60;99.90;;;;;;5116811;28;20335;-68
2022/02/08 20:43:48;;;;;;;3.33;1.45;;;8.70;99.90;;;;;;5115291;27;20016;-67
2022/02/08 20:46:15;;;;;;;3.38;1.92;;;8.60;99.90;;;;;;5117002;28;20020;-66
2022/02/08 20:48:42;;;;;;;4.32;1.70;;;8.70;99.90;;;;;;5116502;28;20012;-68
2022/02/08 20:51:08;;;;;;;3.10;1.80;;;8.60;99.90;;;;;;5116311;28;20039;-66
2022/02/08 20:53:38;;;;;;;2.50;1.70;;;8.60;99.90;;;;;;5116315;28;20074;-66
2022/02/08 20:56:12;;;;;;;2.58;1.45;;;8.60;99.90;;;;;;5116368;28;20019;-66
2022/02/08 21:01:42;;;;;;;2.90;1.60;;;8.70;99.90;;;;;;5082641;28;20384;-67
2022/02/08 21:06:46;;;;;;;2.65;1.30;;;8.70;99.90;;;;;;5116702;28;20460;-66
2022/02/08 21:09:14;;;;;;;1.80;1.20;;;8.70;99.90;;;;;;5116116;28;20032;-67
2022/02/08 21:11:43;;;;;;;2.10;1.10;;;8.70;99.90;;;;;;5116413;28;20015;-67
2022/02/08 21:14:13;;;;;;;3.30;1.40;;;8.60;99.90;;;;;;5116317;28;20019;-66
2022/02/08 21:16:46;;;;;;;2.13;1.30;;;8.50;99.90;;;;;;5116914;28;20103;-67